sensor_id;sensor_type;location;lat;lon;timestamp;P1;durP1;ratioP1;P2;durP2;ratioP2
11247;SDS011;5681;53.316;13.950;2024-03-06T00:02:18;8.33;;;7.33;;
11247;SDS011;5681;53.316;13.950;2024-03-06T00:04:46;9.63;;;7.30;;
11247;SDS011;5681;53.316;13.950;2024-03-06T00:07:13;10.60;;;7.80;;
11247;SDS011;5681;53.316;13.950;2024-03-06T00:09:40;9.77;;;8.23;;
11247;SDS011;5681;53.316;13.950;2024-03-06T00:12:07;9.67;;;7.83;;
11247;SDS011;5681;53.316;13.950;2024-03-06T00:14:33;9.83;;;7.93;;
11247;SDS011;5681;53.316;13.950;2024-03-06T00:17:01;10.93;;;8.80;;
11247;SDS011;5681;53.316;13.950;2024-03-06T00:19:29;11.57;;;8.67;;
11247;SDS011;5681;53.316;13.950;2024-03-06T00:21:56;8.97;;;7.90;;
11247;SDS011;5681;53.316;13.950;2024-03-06T00:24:22;8.67;;;7.77;;
11247;SDS011;5681;53.316;13.950;2024-03-06T00:26:50;9.57;;;7.70;;
11247;SDS011;5681;53.316;13.950;2024-03-06T00:29:16;9.60;;;8.10;;
11247;SDS011;5681;53.316;13.950;2024-03-06T00:31:43;9.37;;;8.37;;
11247;SDS011;5681;53.316;13.950;2024-03-06T00:34:10;10.87;;;8.80;;
11247;SDS011;5681;53.316;13.950;2024-03-06T00:36:39;9.80;;;8.80;;
11247;SDS011;5681;53.316;13.950;2024-03-06T00:39:05;10.30;;;8.83;;
11247;SDS011;5681;53.316;13.950;2024-03-06T00:41:33;11.53;;;8.73;;
11247;SDS011;5681;53.316;13.950;2024-03-06T00:44:01;12.07;;;8.83;;
11247;SDS011;5681;53.316;13.950;2024-03-06T00:46:27;9.20;;;8.30;;
11247;SDS011;5681;53.316;13.950;2024-03-06T00:48:54;9.77;;;8.60;;
11247;SDS011;5681;53.316;13.950;2024-03-06T00:51:20;10.63;;;8.37;;
11247;SDS011;5681;53.316;13.950;2024-03-06T00:53:47;10.93;;;8.60;;
11247;SDS011;5681;53.316;13.950;2024-03-06T00:56:13;10.97;;;8.47;;
11247;SDS011;5681;53.316;13.950;2024-03-06T00:58:39;9.43;;;8.33;;
11247;SDS011;5681;53.316;13.950;2024-03-06T01:01:07;10.93;;;8.70;;
11247;SDS011;5681;53.316;13.950;2024-03-06T01:03:34;11.47;;;9.03;;
11247;SDS011;5681;53.316;13.950;2024-03-06T01:06:00;12.40;;;9.70;;
11247;SDS011;5681;53.316;13.950;2024-03-06T01:08:27;11.83;;;9.27;;
11247;SDS011;5681;53.316;13.950;2024-03-06T01:10:53;9.60;;;8.60;;
11247;SDS011;5681;53.316;13.950;2024-03-06T01:13:20;9.83;;;8.53;;
11247;SDS011;5681;53.316;13.950;2024-03-06T01:15:46;11.67;;;8.90;;
11247;SDS011;5681;53.316;13.950;2024-03-06T01:18:14;10.20;;;8.70;;
11247;SDS011;5681;53.316;13.950;2024-03-06T01:20:40;11.07;;;9.60;;
11247;SDS011;5681;53.316;13.950;2024-03-06T01:23:07;10.80;;;9.47;;
11247;SDS011;5681;53.316;13.950;2024-03-06T01:25:33;11.33;;;9.43;;
11247;SDS011;5681;53.316;13.950;2024-03-06T01:28:00;10.87;;;8.83;;
11247;SDS011;5681;53.316;13.950;2024-03-06T01:30:26;9.67;;;8.67;;
11247;SDS011;5681;53.316;13.950;2024-03-06T01:32:52;10.63;;;9.43;;
11247;SDS011;5681;53.316;13.950;2024-03-06T01:35:20;11.23;;;9.87;;
11247;SDS011;5681;53.316;13.950;2024-03-06T01:37:46;11.33;;;9.77;;
11247;SDS011;5681;53.316;13.950;2024-03-06T01:40:13;11.27;;;9.33;;
11247;SDS011;5681;53.316;13.950;2024-03-06T01:42:39;11.40;;;9.20;;
11247;SDS011;5681;53.316;13.950;2024-03-06T01:45:06;12.87;;;9.23;;
11247;SDS011;5681;53.316;13.950;2024-03-06T01:47:34;11.73;;;8.90;;
11247;SDS011;5681;53.316;13.950;2024-03-06T01:50:00;11.37;;;9.63;;
11247;SDS011;5681;53.316;13.950;2024-03-06T01:52:28;10.80;;;9.63;;
11247;SDS011;5681;53.316;13.950;2024-03-06T01:54:55;10.63;;;9.53;;
11247;SDS011;5681;53.316;13.950;2024-03-06T01:57:22;11.00;;;9.63;;
11247;SDS011;5681;53.316;13.950;2024-03-06T01:59:49;11.70;;;10.20;;
11247;SDS011;5681;53.316;13.950;2024-03-06T02:02:15;13.00;;;10.13;;
11247;SDS011;5681;53.316;13.950;2024-03-06T02:04:42;11.83;;;9.87;;
11247;SDS011;5681;53.316;13.950;2024-03-06T02:07:09;11.00;;;9.53;;
11247;SDS011;5681;53.316;13.950;2024-03-06T02:09:37;11.60;;;9.20;;
11247;SDS011;5681;53.316;13.950;2024-03-06T02:12:04;12.30;;;9.83;;
11247;SDS011;5681;53.316;13.950;2024-03-06T02:14:33;12.10;;;9.90;;
11247;SDS011;5681;53.316;13.950;2024-03-06T02:16:59;12.23;;;9.93;;
11247;SDS011;5681;53.316;13.950;2024-03-06T02:19:36;11.77;;;10.00;;
11247;SDS011;5681;53.316;13.950;2024-03-06T02:22:05;11.37;;;9.90;;
11247;SDS011;5681;53.316;13.950;2024-03-06T02:24:31;9.77;;;8.77;;
11247;SDS011;5681;53.316;13.950;2024-03-06T02:26:58;10.53;;;9.30;;
11247;SDS011;5681;53.316;13.950;2024-03-06T02:29:24;12.00;;;9.87;;
11247;SDS011;5681;53.316;13.950;2024-03-06T02:31:50;10.80;;;9.70;;
11247;SDS011;5681;53.316;13.950;2024-03-06T02:34:17;11.10;;;8.83;;
11247;SDS011;5681;53.316;13.950;2024-03-06T02:36:44;11.13;;;9.43;;
11247;SDS011;5681;53.316;13.950;2024-03-06T02:39:11;10.17;;;9.10;;
11247;SDS011;5681;53.316;13.950;2024-03-06T02:41:38;10.57;;;9.17;;
11247;SDS011;5681;53.316;13.950;2024-03-06T02:44:04;11.83;;;9.27;;
11247;SDS011;5681;53.316;13.950;2024-03-06T02:46:32;9.57;;;8.60;;
11247;SDS011;5681;53.316;13.950;2024-03-06T02:48:58;10.13;;;9.10;;
11247;SDS011;5681;53.316;13.950;2024-03-06T02:51:25;10.83;;;9.27;;
11247;SDS011;5681;53.316;13.950;2024-03-06T02:53:51;10.07;;;9.07;;
11247;SDS011;5681;53.316;13.950;2024-03-06T02:56:19;10.53;;;9.00;;
11247;SDS011;5681;53.316;13.950;2024-03-06T02:58:46;10.10;;;9.10;;
11247;SDS011;5681;53.316;13.950;2024-03-06T03:01:13;12.67;;;9.60;;
11247;SDS011;5681;53.316;13.950;2024-03-06T03:03:40;10.47;;;8.93;;
11247;SDS011;5681;53.316;13.950;2024-03-06T03:06:06;10.30;;;9.20;;
11247;SDS011;5681;53.316;13.950;2024-03-06T03:08:33;10.37;;;9.27;;
11247;SDS011;5681;53.316;13.950;2024-03-06T03:10:59;11.43;;;9.40;;
11247;SDS011;5681;53.316;13.950;2024-03-06T03:13:27;10.47;;;9.00;;
11247;SDS011;5681;53.316;13.950;2024-03-06T03:15:53;11.03;;;9.47;;
11247;SDS011;5681;53.316;13.950;2024-03-06T03:18:20;11.63;;;9.93;;
11247;SDS011;5681;53.316;13.950;2024-03-06T03:20:46;11.87;;;10.23;;
11247;SDS011;5681;53.316;13.950;2024-03-06T03:23:13;12.43;;;9.97;;
11247;SDS011;5681;53.316;13.950;2024-03-06T03:25:40;12.67;;;9.30;;
11247;SDS011;5681;53.316;13.950;2024-03-06T03:28:06;11.23;;;9.73;;
11247;SDS011;5681;53.316;13.950;2024-03-06T03:30:36;11.50;;;9.63;;
11247;SDS011;5681;53.316;13.950;2024-03-06T03:33:02;11.97;;;9.90;;
11247;SDS011;5681;53.316;13.950;2024-03-06T03:35:29;10.97;;;9.40;;
11247;SDS011;5681;53.316;13.950;2024-03-06T03:37:56;10.43;;;9.13;;
11247;SDS011;5681;53.316;13.950;2024-03-06T03:40:23;10.80;;;9.50;;
11247;SDS011;5681;53.316;13.950;2024-03-06T03:42:49;10.63;;;8.87;;
11247;SDS011;5681;53.316;13.950;2024-03-06T03:45:16;12.37;;;9.23;;
11247;SDS011;5681;53.316;13.950;2024-03-06T03:47:43;11.30;;;9.20;;
11247;SDS011;5681;53.316;13.950;2024-03-06T03:50:10;10.53;;;8.87;;
11247;SDS011;5681;53.316;13.950;2024-03-06T03:52:36;11.53;;;9.40;;
11247;SDS011;5681;53.316;13.950;2024-03-06T03:55:06;11.40;;;9.10;;
11247;SDS011;5681;53.316;13.950;2024-03-06T03:57:33;10.43;;;9.33;;
11247;SDS011;5681;53.316;13.950;2024-03-06T03:59:59;9.67;;;8.67;;
11247;SDS011;5681;53.316;13.950;2024-03-06T04:02:25;10.57;;;9.30;;
11247;SDS011;5681;53.316;13.950;2024-03-06T04:04:53;11.23;;;9.13;;
11247;SDS011;5681;53.316;13.950;2024-03-06T04:07:19;14.07;;;9.47;;
11247;SDS011;5681;53.316;13.950;2024-03-06T04:09:46;11.07;;;9.60;;
11247;SDS011;5681;53.316;13.950;2024-03-06T04:12:12;10.73;;;9.10;;
11247;SDS011;5681;53.316;13.950;2024-03-06T04:14:39;10.53;;;9.20;;
11247;SDS011;5681;53.316;13.950;2024-03-06T04:17:05;11.50;;;9.30;;
11247;SDS011;5681;53.316;13.950;2024-03-06T04:19:31;12.53;;;10.20;;
11247;SDS011;5681;53.316;13.950;2024-03-06T04:21:59;13.40;;;11.30;;
11247;SDS011;5681;53.316;13.950;2024-03-06T04:24:26;11.90;;;10.80;;
11247;SDS011;5681;53.316;13.950;2024-03-06T04:26:52;11.57;;;9.70;;
11247;SDS011;5681;53.316;13.950;2024-03-06T04:29:18;14.77;;;10.50;;
11247;SDS011;5681;53.316;13.950;2024-03-06T04:31:45;13.20;;;10.70;;
11247;SDS011;5681;53.316;13.950;2024-03-06T04:34:11;13.03;;;10.77;;
11247;SDS011;5681;53.316;13.950;2024-03-06T04:36:37;12.37;;;10.40;;
11247;SDS011;5681;53.316;13.950;2024-03-06T04:39:05;12.30;;;10.13;;
11247;SDS011;5681;53.316;13.950;2024-03-06T04:41:32;12.10;;;9.50;;
11247;SDS011;5681;53.316;13.950;2024-03-06T04:43:59;11.13;;;9.50;;
11247;SDS011;5681;53.316;13.950;2024-03-06T04:46:26;14.27;;;11.10;;
11247;SDS011;5681;53.316;13.950;2024-03-06T04:48:52;16.60;;;11.57;;
11247;SDS011;5681;53.316;13.950;2024-03-06T04:51:19;15.97;;;11.27;;
11247;SDS011;5681;53.316;13.950;2024-03-06T04:53:45;17.40;;;12.47;;
11247;SDS011;5681;53.316;13.950;2024-03-06T04:56:13;18.57;;;13.20;;
11247;SDS011;5681;53.316;13.950;2024-03-06T04:58:41;21.40;;;15.47;;
11247;SDS011;5681;53.316;13.950;2024-03-06T05:01:07;21.80;;;14.03;;
11247;SDS011;5681;53.316;13.950;2024-03-06T05:03:33;43.50;;;14.20;;
11247;SDS011;5681;53.316;13.950;2024-03-06T05:06:00;24.87;;;14.17;;
11247;SDS011;5681;53.316;13.950;2024-03-06T05:08:27;22.23;;;13.67;;
11247;SDS011;5681;53.316;13.950;2024-03-06T05:10:54;19.67;;;14.37;;
11247;SDS011;5681;53.316;13.950;2024-03-06T05:13:22;19.63;;;14.10;;
11247;SDS011;5681;53.316;13.950;2024-03-06T05:15:48;16.27;;;13.70;;
11247;SDS011;5681;53.316;13.950;2024-03-06T05:18:15;19.60;;;14.37;;
11247;SDS011;5681;53.316;13.950;2024-03-06T05:20:41;19.87;;;14.27;;
11247;SDS011;5681;53.316;13.950;2024-03-06T05:23:08;17.47;;;14.13;;
11247;SDS011;5681;53.316;13.950;2024-03-06T05:25:34;17.37;;;12.60;;
11247;SDS011;5681;53.316;13.950;2024-03-06T05:28:01;19.00;;;14.47;;
11247;SDS011;5681;53.316;13.950;2024-03-06T05:30:30;137.80;;;13.23;;
11247;SDS011;5681;53.316;13.950;2024-03-06T05:32:57;13.43;;;10.60;;
11247;SDS011;5681;53.316;13.950;2024-03-06T05:35:23;10.40;;;9.33;;
11247;SDS011;5681;53.316;13.950;2024-03-06T05:37:50;33.67;;;8.13;;
11247;SDS011;5681;53.316;13.950;2024-03-06T05:40:16;31.00;;;8.00;;
11247;SDS011;5681;53.316;13.950;2024-03-06T05:42:43;12.73;;;7.47;;
11247;SDS011;5681;53.316;13.950;2024-03-06T05:45:09;8.33;;;7.17;;
11247;SDS011;5681;53.316;13.950;2024-03-06T05:47:38;13.47;;;7.00;;
11247;SDS011;5681;53.316;13.950;2024-03-06T05:50:05;6.97;;;6.27;;
11247;SDS011;5681;53.316;13.950;2024-03-06T05:52:32;9.17;;;7.10;;
11247;SDS011;5681;53.316;13.950;2024-03-06T05:55:00;10.53;;;7.67;;
11247;SDS011;5681;53.316;13.950;2024-03-06T05:57:27;10.23;;;8.40;;
11247;SDS011;5681;53.316;13.950;2024-03-06T05:59:53;13.87;;;10.47;;
11247;SDS011;5681;53.316;13.950;2024-03-06T06:02:19;15.63;;;11.20;;
11247;SDS011;5681;53.316;13.950;2024-03-06T06:04:47;38.47;;;10.63;;
11247;SDS011;5681;53.316;13.950;2024-03-06T06:07:13;12.80;;;10.60;;
11247;SDS011;5681;53.316;13.950;2024-03-06T06:09:40;13.43;;;10.03;;
11247;SDS011;5681;53.316;13.950;2024-03-06T06:12:07;14.50;;;10.70;;
11247;SDS011;5681;53.316;13.950;2024-03-06T06:14:34;19.10;;;10.83;;
11247;SDS011;5681;53.316;13.950;2024-03-06T06:17:12;15.60;;;9.97;;
11247;SDS011;5681;53.316;13.950;2024-03-06T06:19:41;13.33;;;10.33;;
11247;SDS011;5681;53.316;13.950;2024-03-06T06:22:09;12.60;;;10.20;;
11247;SDS011;5681;53.316;13.950;2024-03-06T06:24:36;15.93;;;10.97;;
11247;SDS011;5681;53.316;13.950;2024-03-06T06:27:03;59.03;;;11.67;;
11247;SDS011;5681;53.316;13.950;2024-03-06T06:29:30;22.37;;;10.97;;
11247;SDS011;5681;53.316;13.950;2024-03-06T06:31:56;12.77;;;10.07;;
11247;SDS011;5681;53.316;13.950;2024-03-06T06:34:23;12.97;;;10.80;;
11247;SDS011;5681;53.316;13.950;2024-03-06T06:36:52;14.47;;;9.77;;
11247;SDS011;5681;53.316;13.950;2024-03-06T06:39:20;40.03;;;10.03;;
11247;SDS011;5681;53.316;13.950;2024-03-06T06:41:46;93.63;;;10.77;;
11247;SDS011;5681;53.316;13.950;2024-03-06T06:44:13;10.73;;;9.63;;
11247;SDS011;5681;53.316;13.950;2024-03-06T06:46:39;13.43;;;8.97;;
11247;SDS011;5681;53.316;13.950;2024-03-06T06:49:06;17.17;;;9.20;;
11247;SDS011;5681;53.316;13.950;2024-03-06T06:51:32;82.80;;;12.67;;
11247;SDS011;5681;53.316;13.950;2024-03-06T06:53:58;42.47;;;9.47;;
11247;SDS011;5681;53.316;13.950;2024-03-06T06:56:26;21.00;;;9.07;;
11247;SDS011;5681;53.316;13.950;2024-03-06T06:58:53;31.67;;;9.23;;
11247;SDS011;5681;53.316;13.950;2024-03-06T07:01:20;24.20;;;10.07;;
11247;SDS011;5681;53.316;13.950;2024-03-06T07:03:46;64.07;;;12.23;;
11247;SDS011;5681;53.316;13.950;2024-03-06T07:06:13;36.40;;;11.23;;
11247;SDS011;5681;53.316;13.950;2024-03-06T07:08:39;79.50;;;12.43;;
11247;SDS011;5681;53.316;13.950;2024-03-06T07:11:06;19.67;;;11.10;;
11247;SDS011;5681;53.316;13.950;2024-03-06T07:13:33;14.90;;;11.23;;
11247;SDS011;5681;53.316;13.950;2024-03-06T07:16:02;17.23;;;11.97;;
11247;SDS011;5681;53.316;13.950;2024-03-06T07:18:28;59.27;;;11.87;;
11247;SDS011;5681;53.316;13.950;2024-03-06T07:20:55;36.53;;;11.13;;
11247;SDS011;5681;53.316;13.950;2024-03-06T07:23:21;16.60;;;11.37;;
11247;SDS011;5681;53.316;13.950;2024-03-06T07:25:47;27.20;;;12.33;;
11247;SDS011;5681;53.316;13.950;2024-03-06T07:28:14;16.23;;;12.27;;
11247;SDS011;5681;53.316;13.950;2024-03-06T07:30:41;24.20;;;12.87;;
11247;SDS011;5681;53.316;13.950;2024-03-06T07:33:08;24.10;;;13.97;;
11247;SDS011;5681;53.316;13.950;2024-03-06T07:35:34;20.20;;;14.70;;
11247;SDS011;5681;53.316;13.950;2024-03-06T07:38:01;19.33;;;13.47;;
11247;SDS011;5681;53.316;13.950;2024-03-06T07:40:29;25.23;;;15.20;;
11247;SDS011;5681;53.316;13.950;2024-03-06T07:42:55;21.17;;;15.93;;
11247;SDS011;5681;53.316;13.950;2024-03-06T07:45:22;25.33;;;15.07;;
11247;SDS011;5681;53.316;13.950;2024-03-06T07:47:49;109.30;;;17.60;;
11247;SDS011;5681;53.316;13.950;2024-03-06T07:50:16;30.37;;;18.17;;
11247;SDS011;5681;53.316;13.950;2024-03-06T07:52:44;24.53;;;18.67;;
11247;SDS011;5681;53.316;13.950;2024-03-06T07:55:10;26.40;;;20.30;;
11247;SDS011;5681;53.316;13.950;2024-03-06T07:57:36;65.53;;;22.03;;
11247;SDS011;5681;53.316;13.950;2024-03-06T08:00:03;38.60;;;23.40;;
11247;SDS011;5681;53.316;13.950;2024-03-06T08:02:39;82.93;;;25.90;;
11247;SDS011;5681;53.316;13.950;2024-03-06T08:05:09;54.17;;;29.07;;
11247;SDS011;5681;53.316;13.950;2024-03-06T08:07:37;39.57;;;28.97;;
11247;SDS011;5681;53.316;13.950;2024-03-06T08:10:07;51.73;;;29.20;;
11247;SDS011;5681;53.316;13.950;2024-03-06T08:12:34;47.13;;;32.27;;
11247;SDS011;5681;53.316;13.950;2024-03-06T08:15:01;59.30;;;33.90;;
11247;SDS011;5681;53.316;13.950;2024-03-06T08:17:28;55.07;;;36.97;;
11247;SDS011;5681;53.316;13.950;2024-03-06T08:19:54;76.50;;;42.10;;
11247;SDS011;5681;53.316;13.950;2024-03-06T08:22:22;130.17;;;56.67;;
11247;SDS011;5681;53.316;13.950;2024-03-06T08:24:48;250.57;;;78.60;;
11247;SDS011;5681;53.316;13.950;2024-03-06T08:27:15;294.47;;;87.67;;
11247;SDS011;5681;53.316;13.950;2024-03-06T08:29:42;243.77;;;82.27;;
11247;SDS011;5681;53.316;13.950;2024-03-06T08:32:08;288.70;;;88.00;;
11247;SDS011;5681;53.316;13.950;2024-03-06T08:34:34;279.80;;;88.90;;
11247;SDS011;5681;53.316;13.950;2024-03-06T08:37:01;292.00;;;97.43;;
11247;SDS011;5681;53.316;13.950;2024-03-06T08:39:29;286.70;;;98.57;;
11247;SDS011;5681;53.316;13.950;2024-03-06T08:41:55;304.17;;;100.67;;
11247;SDS011;5681;53.316;13.950;2024-03-06T08:44:23;300.37;;;99.37;;
11247;SDS011;5681;53.316;13.950;2024-03-06T08:46:49;291.30;;;103.53;;
11247;SDS011;5681;53.316;13.950;2024-03-06T08:49:15;308.77;;;103.23;;
11247;SDS011;5681;53.316;13.950;2024-03-06T08:51:42;281.37;;;100.50;;
11247;SDS011;5681;53.316;13.950;2024-03-06T08:54:08;313.40;;;110.60;;
11247;SDS011;5681;53.316;13.950;2024-03-06T08:56:37;285.53;;;105.33;;
11247;SDS011;5681;53.316;13.950;2024-03-06T08:59:03;218.03;;;92.07;;
11247;SDS011;5681;53.316;13.950;2024-03-06T09:01:29;194.43;;;84.93;;
11247;SDS011;5681;53.316;13.950;2024-03-06T09:03:56;169.90;;;80.20;;
11247;SDS011;5681;53.316;13.950;2024-03-06T09:06:22;146.97;;;72.20;;
11247;SDS011;5681;53.316;13.950;2024-03-06T09:08:49;108.97;;;61.63;;
11247;SDS011;5681;53.316;13.950;2024-03-06T09:11:15;68.40;;;44.73;;
11247;SDS011;5681;53.316;13.950;2024-03-06T09:13:43;50.73;;;34.50;;
11247;SDS011;5681;53.316;13.950;2024-03-06T09:16:09;40.67;;;32.87;;
11247;SDS011;5681;53.316;13.950;2024-03-06T09:18:35;35.87;;;29.40;;
11247;SDS011;5681;53.316;13.950;2024-03-06T09:21:02;34.17;;;28.07;;
11247;SDS011;5681;53.316;13.950;2024-03-06T09:23:28;31.37;;;27.23;;
11247;SDS011;5681;53.316;13.950;2024-03-06T09:25:56;34.57;;;25.33;;
11247;SDS011;5681;53.316;13.950;2024-03-06T09:28:22;30.53;;;23.20;;
11247;SDS011;5681;53.316;13.950;2024-03-06T09:30:50;28.92;;;24.48;;
11247;SDS011;5681;53.316;13.950;2024-03-06T09:33:16;25.15;;;21.60;;
11247;SDS011;5681;53.316;13.950;2024-03-06T09:35:42;25.45;;;21.48;;
11247;SDS011;5681;53.316;13.950;2024-03-06T09:38:10;25.98;;;22.13;;
11247;SDS011;5681;53.316;13.950;2024-03-06T09:40:38;23.27;;;20.48;;
11247;SDS011;5681;53.316;13.950;2024-03-06T09:43:05;23.35;;;19.65;;
11247;SDS011;5681;53.316;13.950;2024-03-06T09:45:31;22.48;;;19.30;;
11247;SDS011;5681;53.316;13.950;2024-03-06T09:47:59;21.33;;;19.10;;
11247;SDS011;5681;53.316;13.950;2024-03-06T09:50:26;22.25;;;19.85;;
11247;SDS011;5681;53.316;13.950;2024-03-06T09:52:52;20.52;;;18.17;;
11247;SDS011;5681;53.316;13.950;2024-03-06T09:55:20;21.00;;;18.40;;
11247;SDS011;5681;53.316;13.950;2024-03-06T09:57:47;26.15;;;19.83;;
11247;SDS011;5681;53.316;13.950;2024-03-06T10:00:15;23.65;;;20.27;;
11247;SDS011;5681;53.316;13.950;2024-03-06T10:02:46;21.13;;;18.02;;
11247;SDS011;5681;53.316;13.950;2024-03-06T10:05:22;19.15;;;16.83;;
11247;SDS011;5681;53.316;13.950;2024-03-06T10:07:49;19.55;;;17.35;;
11247;SDS011;5681;53.316;13.950;2024-03-06T10:10:16;18.40;;;16.42;;
11247;SDS011;5681;53.316;13.950;2024-03-06T10:12:44;18.50;;;16.58;;
11247;SDS011;5681;53.316;13.950;2024-03-06T10:15:13;19.90;;;17.65;;
11247;SDS011;5681;53.316;13.950;2024-03-06T10:17:39;19.30;;;16.42;;
11247;SDS011;5681;53.316;13.950;2024-03-06T10:20:16;19.70;;;15.25;;
11247;SDS011;5681;53.316;13.950;2024-03-06T10:22:45;17.38;;;15.32;;
11247;SDS011;5681;53.316;13.950;2024-03-06T10:25:13;16.05;;;14.35;;
11247;SDS011;5681;53.316;13.950;2024-03-06T10:27:39;18.30;;;14.63;;
11247;SDS011;5681;53.316;13.950;2024-03-06T10:30:06;21.17;;;15.70;;
11247;SDS011;5681;53.316;13.950;2024-03-06T10:32:36;17.70;;;15.52;;
11247;SDS011;5681;53.316;13.950;2024-03-06T10:35:02;16.17;;;14.52;;
11247;SDS011;5681;53.316;13.950;2024-03-06T10:37:31;16.67;;;14.70;;
11247;SDS011;5681;53.316;13.950;2024-03-06T10:40:01;16.80;;;14.77;;
11247;SDS011;5681;53.316;13.950;2024-03-06T10:42:31;17.13;;;15.05;;
11247;SDS011;5681;53.316;13.950;2024-03-06T10:44:59;16.48;;;14.77;;
11247;SDS011;5681;53.316;13.950;2024-03-06T10:47:26;16.08;;;14.30;;
11247;SDS011;5681;53.316;13.950;2024-03-06T10:49:54;15.20;;;13.57;;
11247;SDS011;5681;53.316;13.950;2024-03-06T10:52:21;14.93;;;13.32;;
11247;SDS011;5681;53.316;13.950;2024-03-06T10:54:48;14.77;;;13.27;;
11247;SDS011;5681;53.316;13.950;2024-03-06T10:57:15;14.65;;;13.00;;
11247;SDS011;5681;53.316;13.950;2024-03-06T10:59:43;15.35;;;13.23;;
11247;SDS011;5681;53.316;13.950;2024-03-06T11:02:10;13.85;;;12.27;;
11247;SDS011;5681;53.316;13.950;2024-03-06T11:04:37;14.20;;;12.50;;
11247;SDS011;5681;53.316;13.950;2024-03-06T11:07:05;13.55;;;12.15;;
11247;SDS011;5681;53.316;13.950;2024-03-06T11:09:32;13.80;;;12.40;;
11247;SDS011;5681;53.316;13.950;2024-03-06T11:12:00;12.55;;;11.25;;
11247;SDS011;5681;53.316;13.950;2024-03-06T11:14:30;13.38;;;11.40;;
11247;SDS011;5681;53.316;13.950;2024-03-06T11:16:57;14.15;;;10.77;;
11247;SDS011;5681;53.316;13.950;2024-03-06T11:19:25;13.15;;;11.38;;
11247;SDS011;5681;53.316;13.950;2024-03-06T11:21:52;12.57;;;11.27;;
11247;SDS011;5681;53.316;13.950;2024-03-06T11:24:19;13.18;;;11.73;;
11247;SDS011;5681;53.316;13.950;2024-03-06T11:26:46;13.25;;;11.88;;
11247;SDS011;5681;53.316;13.950;2024-03-06T11:29:15;13.13;;;11.82;;
11247;SDS011;5681;53.316;13.950;2024-03-06T11:31:57;13.07;;;11.75;;
11247;SDS011;5681;53.316;13.950;2024-03-06T11:34:24;14.32;;;12.52;;
11247;SDS011;5681;53.316;13.950;2024-03-06T11:36:53;13.40;;;12.00;;
11247;SDS011;5681;53.316;13.950;2024-03-06T11:39:19;12.50;;;11.20;;
11247;SDS011;5681;53.316;13.950;2024-03-06T11:41:46;13.40;;;11.63;;
11247;SDS011;5681;53.316;13.950;2024-03-06T11:44:14;14.10;;;12.60;;
11247;SDS011;5681;53.316;13.950;2024-03-06T11:46:41;13.60;;;12.23;;
11247;SDS011;5681;53.316;13.950;2024-03-06T11:49:15;13.35;;;12.02;;
11247;SDS011;5681;53.316;13.950;2024-03-06T11:51:44;14.55;;;13.05;;
11247;SDS011;5681;53.316;13.950;2024-03-06T11:54:10;13.80;;;12.40;;
11247;SDS011;5681;53.316;13.950;2024-03-06T11:56:38;14.25;;;12.75;;
11247;SDS011;5681;53.316;13.950;2024-03-06T11:59:05;14.82;;;13.23;;
11247;SDS011;5681;53.316;13.950;2024-03-06T12:01:32;14.98;;;12.48;;
11247;SDS011;5681;53.316;13.950;2024-03-06T12:03:59;15.15;;;13.48;;
11247;SDS011;5681;53.316;13.950;2024-03-06T12:06:28;14.75;;;13.23;;
11247;SDS011;5681;53.316;13.950;2024-03-06T12:08:55;14.35;;;12.90;;
11247;SDS011;5681;53.316;13.950;2024-03-06T12:11:21;15.00;;;13.38;;
11247;SDS011;5681;53.316;13.950;2024-03-06T12:13:47;17.75;;;13.60;;
11247;SDS011;5681;53.316;13.950;2024-03-06T12:16:14;15.48;;;13.52;;
11247;SDS011;5681;53.316;13.950;2024-03-06T12:18:41;15.68;;;14.02;;
11247;SDS011;5681;53.316;13.950;2024-03-06T12:21:07;14.68;;;13.13;;
11247;SDS011;5681;53.316;13.950;2024-03-06T12:23:35;18.38;;;14.60;;
11247;SDS011;5681;53.316;13.950;2024-03-06T12:26:04;14.93;;;13.35;;
11247;SDS011;5681;53.316;13.950;2024-03-06T12:28:31;17.48;;;14.25;;
11247;SDS011;5681;53.316;13.950;2024-03-06T12:30:58;18.67;;;15.07;;
11247;SDS011;5681;53.316;13.950;2024-03-06T12:33:28;15.65;;;13.88;;
11247;SDS011;5681;53.316;13.950;2024-03-06T12:36:01;15.95;;;14.13;;
11247;SDS011;5681;53.316;13.950;2024-03-06T12:38:28;17.92;;;14.25;;
11247;SDS011;5681;53.316;13.950;2024-03-06T12:40:56;15.40;;;13.80;;
11247;SDS011;5681;53.316;13.950;2024-03-06T12:43:23;14.75;;;13.25;;
11247;SDS011;5681;53.316;13.950;2024-03-06T12:45:50;15.52;;;13.90;;
11247;SDS011;5681;53.316;13.950;2024-03-06T12:48:19;15.00;;;13.50;;
11247;SDS011;5681;53.316;13.950;2024-03-06T12:50:46;16.23;;;13.27;;
11247;SDS011;5681;53.316;13.950;2024-03-06T12:53:16;14.93;;;13.43;;
11247;SDS011;5681;53.316;13.950;2024-03-06T12:55:42;14.77;;;13.27;;
11247;SDS011;5681;53.316;13.950;2024-03-06T12:58:12;16.48;;;13.30;;
11247;SDS011;5681;53.316;13.950;2024-03-06T13:00:38;15.07;;;12.52;;
11247;SDS011;5681;53.316;13.950;2024-03-06T13:03:05;14.45;;;12.93;;
11247;SDS011;5681;53.316;13.950;2024-03-06T13:05:31;14.23;;;12.70;;
11247;SDS011;5681;53.316;13.950;2024-03-06T13:07:58;14.80;;;13.30;;
11247;SDS011;5681;53.316;13.950;2024-03-06T13:10:25;14.85;;;13.05;;
11247;SDS011;5681;53.316;13.950;2024-03-06T13:12:52;16.77;;;12.77;;
11247;SDS011;5681;53.316;13.950;2024-03-06T13:15:20;15.50;;;12.35;;
11247;SDS011;5681;53.316;13.950;2024-03-06T13:17:46;15.20;;;13.27;;
11247;SDS011;5681;53.316;13.950;2024-03-06T13:20:12;19.15;;;12.93;;
11247;SDS011;5681;53.316;13.950;2024-03-06T13:22:40;15.77;;;12.68;;
11247;SDS011;5681;53.316;13.950;2024-03-06T13:25:06;13.98;;;12.55;;
11247;SDS011;5681;53.316;13.950;2024-03-06T13:27:33;14.25;;;12.85;;
11247;SDS011;5681;53.316;13.950;2024-03-06T13:30:00;15.60;;;12.90;;
11247;SDS011;5681;53.316;13.950;2024-03-06T13:32:27;13.50;;;12.10;;
11247;SDS011;5681;53.316;13.950;2024-03-06T13:34:54;14.55;;;13.05;;
11247;SDS011;5681;53.316;13.950;2024-03-06T13:37:21;14.18;;;12.68;;
11247;SDS011;5681;53.316;13.950;2024-03-06T13:39:48;12.27;;;11.07;;
11247;SDS011;5681;53.316;13.950;2024-03-06T13:42:15;12.45;;;11.15;;
11247;SDS011;5681;53.316;13.950;2024-03-06T13:44:41;12.35;;;11.05;;
11247;SDS011;5681;53.316;13.950;2024-03-06T13:47:07;13.55;;;12.15;;
11247;SDS011;5681;53.316;13.950;2024-03-06T13:49:42;13.70;;;12.05;;
11247;SDS011;5681;53.316;13.950;2024-03-06T13:52:09;13.82;;;11.48;;
11247;SDS011;5681;53.316;13.950;2024-03-06T13:54:37;12.88;;;11.57;;
11247;SDS011;5681;53.316;13.950;2024-03-06T13:57:04;12.80;;;11.50;;
11247;SDS011;5681;53.316;13.950;2024-03-06T13:59:31;12.45;;;11.15;;
11247;SDS011;5681;53.316;13.950;2024-03-06T14:01:57;12.52;;;11.25;;
11247;SDS011;5681;53.316;13.950;2024-03-06T14:04:24;12.90;;;11.60;;
11247;SDS011;5681;53.316;13.950;2024-03-06T14:06:53;13.55;;;12.00;;
11247;SDS011;5681;53.316;13.950;2024-03-06T14:09:19;12.75;;;11.45;;
11247;SDS011;5681;53.316;13.950;2024-03-06T14:11:48;14.95;;;11.50;;
11247;SDS011;5681;53.316;13.950;2024-03-06T14:14:15;12.75;;;11.48;;
11247;SDS011;5681;53.316;13.950;2024-03-06T14:16:41;14.20;;;11.75;;
11247;SDS011;5681;53.316;13.950;2024-03-06T14:19:08;13.32;;;11.93;;
11247;SDS011;5681;53.316;13.950;2024-03-06T14:21:34;16.73;;;12.75;;
11247;SDS011;5681;53.316;13.950;2024-03-06T14:24:03;15.05;;;13.25;;
11247;SDS011;5681;53.316;13.950;2024-03-06T14:26:31;14.27;;;12.85;;